createdAt,value
2023-04-30T00:00:45.829Z,98994.09
2023-04-30T00:03:12.514Z,98992.28
2023-04-30T00:05:39.077Z,98997.59
2023-04-30T00:08:05.656Z,98998.09
2023-04-30T00:10:32.294Z,99005.81
2023-04-30T00:12:58.816Z,99007.03
2023-04-30T00:15:25.331Z,99003.56
2023-04-30T00:17:53.466Z,98999.41
2023-04-30T00:20:20.144Z,99003.31
2023-04-30T00:22:46.644Z,98998.03
2023-04-30T00:25:13.096Z,99001.50
2023-04-30T00:27:40.877Z,98998.16
2023-04-30T00:30:08.327Z,98999.66
2023-04-30T00:32:34.839Z,99004.69
2023-04-30T00:35:01.340Z,98995.50
2023-04-30T00:37:27.860Z,98993.41
2023-04-30T00:39:54.590Z,99000.00
2023-04-30T00:42:21.272Z,99003.47
2023-04-30T00:44:47.751Z,99001.69
2023-04-30T00:47:14.192Z,99004.78
2023-04-30T00:49:40.912Z,99001.28
2023-04-30T00:52:07.937Z,99010.06
2023-04-30T00:54:34.629Z,99001.81
2023-04-30T00:57:02.983Z,99004.41
2023-04-30T00:59:30.074Z,99011.19
2023-04-30T01:01:56.624Z,99010.84
2023-04-30T01:04:24.106Z,99003.84
2023-04-30T01:06:51.959Z,99007.88
2023-04-30T01:09:18.882Z,99013.38
2023-04-30T01:12:05.636Z,99017.97
2023-04-30T01:14:45.344Z,99019.44
2023-04-30T01:17:26.996Z,99011.22
2023-04-30T01:19:55.831Z,99016.22
2023-04-30T01:22:28.296Z,99004.44
2023-04-30T01:25:13.082Z,99015.78
2023-04-30T01:28:16.831Z,99020.59
2023-04-30T01:30:44.902Z,99025.13
2023-04-30T01:33:12.605Z,99018.78
2023-04-30T01:36:22.645Z,99018.03
2023-04-30T01:39:28.651Z,99017.69
2023-04-30T01:42:36.116Z,99011.91
2023-04-30T01:45:53.779Z,99009.59
2023-04-30T01:48:55.994Z,99015.91
2023-04-30T01:51:39.521Z,99016.72
2023-04-30T01:54:21.324Z,99013.63
2023-04-30T01:57:16.190Z,99014.69
2023-04-30T01:59:43.995Z,99017.00
2023-04-30T02:02:10.469Z,99016.31
2023-04-30T02:04:36.978Z,99014.00
2023-04-30T02:07:03.514Z,99014.91
2023-04-30T02:09:30.033Z,99011.63
2023-04-30T02:11:57.776Z,99020.03
2023-04-30T02:14:24.248Z,99020.56
2023-04-30T02:16:50.724Z,99015.88
2023-04-30T02:19:17.170Z,99018.34
2023-04-30T02:21:43.630Z,99023.28
2023-04-30T02:24:10.072Z,99026.28
2023-04-30T02:26:36.548Z,99020.91
2023-04-30T02:29:03.125Z,99024.47
2023-04-30T02:31:29.623Z,99020.97
2023-04-30T02:33:56.109Z,99032.38
2023-04-30T02:36:22.618Z,99035.00
2023-04-30T02:38:49.118Z,99037.09
2023-04-30T02:41:15.584Z,99034.09
2023-04-30T02:43:42.057Z,99035.72
2023-04-30T02:46:08.585Z,99038.59
2023-04-30T02:48:35.098Z,99035.69
2023-04-30T02:51:01.788Z,99036.44
2023-04-30T02:53:28.252Z,99025.13
2023-04-30T02:55:54.764Z,99029.47
2023-04-30T02:58:21.259Z,99027.78
2023-04-30T03:00:47.810Z,99034.34
2023-04-30T03:03:17.496Z,99033.13
2023-04-30T03:05:44.035Z,99025.81
2023-04-30T03:08:13.760Z,99036.78
2023-04-30T03:10:40.529Z,99035.44
2023-04-30T03:13:07.044Z,99044.81
2023-04-30T03:15:33.532Z,99028.69
2023-04-30T03:18:00.274Z,99033.72
2023-04-30T03:20:28.925Z,99023.38
2023-04-30T03:22:55.499Z,99030.81
2023-04-30T03:25:22.091Z,99030.22
2023-04-30T03:27:48.578Z,99034.59
2023-04-30T03:30:15.125Z,99032.91
2023-04-30T03:32:41.587Z,99030.50
2023-04-30T03:35:08.991Z,99032.59
2023-04-30T03:37:37.813Z,99037.53
2023-04-30T03:40:04.879Z,99035.44
2023-04-30T03:42:31.316Z,99032.28
2023-04-30T03:44:57.816Z,99025.94
2023-04-30T03:47:33.213Z,99027.84
2023-04-30T03:49:59.643Z,99028.69
2023-04-30T03:52:26.495Z,99021.31
2023-04-30T03:54:52.977Z,99030.16
2023-04-30T03:57:19.695Z,99034.06
2023-04-30T03:59:55.116Z,99034.97
2023-04-30T04:02:22.449Z,99033.88
2023-04-30T04:04:49.975Z,99028.44
2023-04-30T04:07:21.863Z,99031.91
2023-04-30T04:10:01.434Z,99024.09
2023-04-30T04:12:27.913Z,99036.78
2023-04-30T04:14:54.612Z,99037.78
2023-04-30T04:17:21.115Z,99027.75
2023-04-30T04:19:47.634Z,99031.34
2023-04-30T04:22:14.136Z,99033.53
2023-04-30T04:24:40.644Z,99030.53
2023-04-30T04:27:07.098Z,99034.53
2023-04-30T04:29:33.563Z,99038.53
2023-04-30T04:32:05.926Z,99034.72
2023-04-30T04:34:35.357Z,99045.69
2023-04-30T04:37:01.868Z,99043.00
2023-04-30T04:39:28.379Z,99051.94
2023-04-30T04:41:55.440Z,99047.94
2023-04-30T04:44:22.824Z,99045.78
2023-04-30T04:46:49.832Z,99041.88
2023-04-30T04:49:16.429Z,99053.66
2023-04-30T04:51:42.934Z,99045.84
2023-04-30T04:54:09.390Z,99048.88
2023-04-30T04:56:35.915Z,99042.72
2023-04-30T04:59:10.236Z,99050.75
2023-04-30T05:01:36.725Z,99056.63
2023-04-30T05:04:06.052Z,99051.75
2023-04-30T05:06:34.930Z,99055.66
2023-04-30T05:09:02.097Z,99059.03
2023-04-30T05:11:28.675Z,99056.97
2023-04-30T05:13:55.218Z,99051.94
2023-04-30T05:16:24.324Z,99055.31
2023-04-30T05:18:51.003Z,99052.53
2023-04-30T05:21:30.626Z,99056.88
2023-04-30T05:23:57.153Z,99059.13
2023-04-30T05:26:24.401Z,99050.50
2023-04-30T05:29:01.176Z,99053.94
2023-04-30T05:31:27.706Z,99053.72
2023-04-30T05:33:54.313Z,99054.13
2023-04-30T05:36:20.771Z,99059.06
2023-04-30T05:38:47.356Z,99063.31
2023-04-30T05:41:13.831Z,99060.72
2023-04-30T05:43:40.430Z,99055.78
2023-04-30T05:46:07.041Z,99061.38
2023-04-30T05:48:33.695Z,99056.88
2023-04-30T05:51:00.288Z,99055.59
2023-04-30T05:53:27.562Z,99054.56
2023-04-30T05:55:54.111Z,99058.72
2023-04-30T05:58:20.717Z,99065.66
2023-04-30T06:00:52.347Z,99069.09
2023-04-30T06:03:19.652Z,99069.09
2023-04-30T06:05:49.464Z,99070.06
2023-04-30T06:08:16.298Z,99066.69
2023-04-30T06:10:42.867Z,99069.88
2023-04-30T06:13:12.564Z,99071.44
2023-04-30T06:15:39.075Z,99068.09
2023-04-30T06:18:05.571Z,99074.91
2023-04-30T06:20:32.195Z,99060.63
2023-04-30T06:22:58.654Z,99067.28
2023-04-30T06:25:30.440Z,99067.50
2023-04-30T06:27:56.937Z,99072.50
2023-04-30T06:30:23.414Z,99079.34
2023-04-30T06:32:50.098Z,99081.03
2023-04-30T06:35:16.569Z,99076.72
2023-04-30T06:37:43.034Z,99068.03
2023-04-30T06:40:09.883Z,99073.31
2023-04-30T06:42:36.484Z,99069.94
2023-04-30T06:45:03.977Z,99067.50
2023-04-30T06:47:38.190Z,99065.09
2023-04-30T06:50:05.607Z,99070.59
2023-04-30T06:52:32.045Z,99068.06
2023-04-30T06:54:58.487Z,99066.69
2023-04-30T06:57:25.634Z,99070.34
2023-04-30T06:59:55.732Z,99069.47
2023-04-30T07:02:22.588Z,99063.81
2023-04-30T07:04:49.464Z,99059.31
2023-04-30T07:07:16.050Z,99051.34
2023-04-30T07:09:42.530Z,99054.91
2023-04-30T07:12:11.111Z,99053.66
2023-04-30T07:14:37.695Z,99061.72
2023-04-30T07:17:04.252Z,99059.78
2023-04-30T07:19:30.813Z,99055.25
2023-04-30T07:21:57.324Z,99050.97
2023-04-30T07:24:23.873Z,99054.66
2023-04-30T07:26:50.639Z,99055.16
2023-04-30T07:29:18.221Z,99046.41
2023-04-30T07:31:44.692Z,99042.66
2023-04-30T07:34:11.350Z,99042.25
2023-04-30T07:36:38.766Z,99042.47
2023-04-30T07:39:06.046Z,99041.34
2023-04-30T07:41:32.565Z,99042.09
2023-04-30T07:43:59.689Z,99042.66
2023-04-30T07:46:26.216Z,99041.81
2023-04-30T07:48:52.739Z,99035.59
2023-04-30T07:51:19.222Z,99036.94
2023-04-30T07:53:45.819Z,99041.44
2023-04-30T07:56:12.295Z,99039.06
2023-04-30T07:58:38.811Z,99040.00
2023-04-30T08:01:05.330Z,99036.22
2023-04-30T08:03:31.906Z,99036.31
2023-04-30T08:05:58.623Z,99040.88
2023-04-30T08:08:25.271Z,99035.50
2023-04-30T08:10:51.698Z,99034.81
2023-04-30T08:13:18.236Z,99039.28
2023-04-30T08:15:44.738Z,99039.41
2023-04-30T08:18:11.388Z,99039.97
2023-04-30T08:20:38.744Z,99041.66
2023-04-30T08:23:05.835Z,99042.03
2023-04-30T08:25:32.402Z,99042.88
2023-04-30T08:27:59.647Z,99032.34
2023-04-30T08:30:26.210Z,99034.22
2023-04-30T08:32:53.675Z,99037.81
2023-04-30T08:35:22.012Z,99035.47
2023-04-30T08:37:48.499Z,99026.59
2023-04-30T08:40:16.500Z,99033.56
2023-04-30T08:42:55.655Z,99029.84
2023-04-30T08:45:22.473Z,99028.22
2023-04-30T08:47:50.080Z,99029.50
2023-04-30T08:50:16.773Z,99031.59
2023-04-30T08:52:43.977Z,99033.09
2023-04-30T08:55:11.230Z,99036.22
2023-04-30T08:57:38.597Z,99034.44
2023-04-30T09:00:07.245Z,99033.38
2023-04-30T09:02:34.873Z,99029.00
2023-04-30T09:05:01.675Z,99027.97
2023-04-30T09:07:33.660Z,99021.13
2023-04-30T09:10:00.757Z,99025.63
2023-04-30T09:12:54.312Z,99019.44
2023-04-30T09:15:34.224Z,99025.41
2023-04-30T09:18:18.234Z,99021.44
2023-04-30T09:21:02.849Z,99021.56
2023-04-30T09:23:30.695Z,99012.47
2023-04-30T09:25:57.270Z,99008.16
2023-04-30T09:28:26.408Z,99012.09
2023-04-30T09:30:53.648Z,99018.16
2023-04-30T09:33:20.475Z,99019.47
2023-04-30T09:35:47.114Z,99015.00
2023-04-30T09:38:34.783Z,99007.28
2023-04-30T09:41:02.121Z,99005.97
2023-04-30T09:43:30.031Z,99008.63
2023-04-30T09:45:59.840Z,98996.38
2023-04-30T09:48:31.257Z,98990.59
2023-04-30T09:50:57.872Z,98993.28
2023-04-30T09:53:24.391Z,98995.22
2023-04-30T09:55:52.110Z,98989.56
2023-04-30T09:58:19.932Z,98997.19
2023-04-30T10:00:49.417Z,98988.63
2023-04-30T10:03:16.767Z,98985.38
2023-04-30T10:05:48.869Z,98983.53
2023-04-30T10:08:24.370Z,98982.72
2023-04-30T10:11:00.071Z,98981.38
2023-04-30T10:13:32.162Z,98972.34
2023-04-30T10:16:44.234Z,98968.72
2023-04-30T10:19:18.906Z,98966.19
2023-04-30T10:21:47.299Z,98953.19
2023-04-30T10:24:19.168Z,98952.63
2023-04-30T10:26:47.829Z,98958.41
2023-04-30T10:29:16.548Z,98959.25
2023-04-30T10:31:52.565Z,98954.78
2023-04-30T10:35:07.005Z,98946.63
2023-04-30T10:37:57.047Z,98946.34
2023-04-30T10:40:27.178Z,98949.31
2023-04-30T10:42:57.452Z,98941.69
2023-04-30T10:45:38.648Z,98940.84
2023-04-30T10:48:06.992Z,98947.16
2023-04-30T10:50:43.453Z,98938.97
2023-04-30T10:53:19.652Z,98929.41
2023-04-30T10:55:58.482Z,98929.78
2023-04-30T10:58:32.415Z,98933.34
2023-04-30T11:01:12.236Z,98923.06
2023-04-30T11:03:43.031Z,98916.44
2023-04-30T11:06:19.964Z,98918.63
2023-04-30T11:08:47.012Z,98915.53
2023-04-30T11:11:23.811Z,98916.09
2023-04-30T11:14:01.727Z,98902.44
2023-04-30T11:16:35.186Z,98904.03
2023-04-30T11:19:14.320Z,98901.13
2023-04-30T11:22:02.099Z,98902.13
2023-04-30T11:24:53.580Z,98904.13
2023-04-30T11:27:23.438Z,98894.91
2023-04-30T11:29:54.210Z,98897.72
2023-04-30T11:32:23.335Z,98906.81
2023-04-30T11:34:51.065Z,98902.47
2023-04-30T11:37:33.307Z,98892.41
2023-04-30T11:40:10.856Z,98884.16
2023-04-30T11:42:46.140Z,98886.03
2023-04-30T11:45:20.706Z,98875.97
2023-04-30T11:47:53.878Z,98878.09
2023-04-30T11:50:30.068Z,98881.88
2023-04-30T11:53:01.879Z,98874.25
2023-04-30T11:55:28.773Z,98878.41
2023-04-30T11:57:59.180Z,98868.25
2023-04-30T12:00:29.344Z,98872.22
2023-04-30T12:02:57.813Z,98867.09
2023-04-30T12:05:27.782Z,98865.41
2023-04-30T12:08:09.289Z,98858.38
2023-04-30T12:10:36.463Z,98861.69
2023-04-30T12:13:03.275Z,98858.53
2023-04-30T12:15:29.865Z,98850.94
2023-04-30T12:17:58.623Z,98856.66
2023-04-30T12:20:29.064Z,98851.72
2023-04-30T12:22:56.925Z,98851.53
2023-04-30T12:25:24.281Z,98851.28
2023-04-30T12:27:53.325Z,98839.56
2023-04-30T12:30:22.539Z,98844.59
2023-04-30T12:32:52.441Z,98847.28
2023-04-30T12:35:22.178Z,98847.31
2023-04-30T12:38:05.989Z,98849.72
2023-04-30T12:40:33.612Z,98854.44
2023-04-30T12:43:08.790Z,98851.69
2023-04-30T12:45:54.026Z,98838.53
2023-04-30T12:48:24.535Z,98841.88
2023-04-30T12:50:59.812Z,98843.50
2023-04-30T12:53:26.710Z,98837.81
2023-04-30T12:56:17.905Z,98844.19
2023-04-30T12:58:51.028Z,98835.34
2023-04-30T13:01:23.370Z,98836.69
2023-04-30T13:03:51.302Z,98820.72
2023-04-30T13:06:18.163Z,98826.63
2023-04-30T13:08:57.047Z,98818.06
2023-04-30T13:11:26.701Z,98821.63
2023-04-30T13:13:55.397Z,98818.16
2023-04-30T13:16:22.844Z,98815.25
2023-04-30T13:18:49.444Z,98824.34
2023-04-30T13:21:15.893Z,98824.75
2023-04-30T13:23:52.007Z,98817.03
2023-04-30T13:26:21.312Z,98812.84
2023-04-30T13:28:47.852Z,98810.16
2023-04-30T13:31:14.480Z,98806.91
2023-04-30T13:33:41.537Z,98808.34
2023-04-30T13:36:08.061Z,98800.78
2023-04-30T13:38:34.543Z,98796.25
2023-04-30T13:41:01.030Z,98799.38
2023-04-30T13:43:27.543Z,98791.38
2023-04-30T13:45:54.060Z,98797.22
2023-04-30T13:48:20.604Z,98791.22
2023-04-30T13:50:47.111Z,98789.53
2023-04-30T13:53:14.269Z,98785.28
2023-04-30T13:55:40.853Z,98791.50
2023-04-30T13:58:07.345Z,98791.13
2023-04-30T14:00:33.924Z,98782.34
2023-04-30T14:03:00.484Z,98780.31
2023-04-30T14:05:27.600Z,98776.78
2023-04-30T14:07:54.092Z,98779.19
2023-04-30T14:10:20.552Z,98783.19
2023-04-30T14:12:48.228Z,98785.31
2023-04-30T14:15:15.216Z,98782.94
2023-04-30T14:17:41.685Z,98780.31
2023-04-30T14:20:09.176Z,98769.78
2023-04-30T14:22:38.341Z,98760.66
2023-04-30T14:25:05.940Z,98766.63
2023-04-30T14:27:32.417Z,98767.84
2023-04-30T14:29:58.892Z,98766.31
2023-04-30T14:32:26.644Z,98767.13
2023-04-30T14:34:54.375Z,98764.59
2023-04-30T14:37:20.896Z,98764.16
2023-04-30T14:39:47.347Z,98765.81
2023-04-30T14:42:13.871Z,98761.53
2023-04-30T14:44:40.391Z,98762.03
2023-04-30T14:47:06.975Z,98755.50
2023-04-30T14:49:33.615Z,98752.59
2023-04-30T14:52:00.147Z,98751.97
2023-04-30T14:54:26.708Z,98751.06
2023-04-30T14:56:53.341Z,98751.75
2023-04-30T14:59:19.900Z,98754.78
2023-04-30T15:01:46.579Z,98749.75
2023-04-30T15:04:13.118Z,98750.88
2023-04-30T15:06:40.119Z,98742.22
2023-04-30T15:09:06.846Z,98742.34
2023-04-30T15:11:33.348Z,98745.59
2023-04-30T15:13:59.778Z,98735.69
2023-04-30T15:16:26.616Z,98722.84
2023-04-30T15:18:54.175Z,98716.91
2023-04-30T15:21:20.658Z,98724.59
2023-04-30T15:23:47.660Z,98716.06
2023-04-30T15:26:14.186Z,98712.91
2023-04-30T15:28:40.758Z,98723.78
2023-04-30T15:31:07.343Z,98719.91
2023-04-30T15:33:39.310Z,98716.34
2023-04-30T15:36:06.135Z,98720.31
2023-04-30T15:38:32.665Z,98723.63
2023-04-30T15:40:59.159Z,98724.56
2023-04-30T15:43:25.685Z,98721.44
2023-04-30T15:45:52.190Z,98717.59
2023-04-30T15:48:18.685Z,98716.44
2023-04-30T15:50:45.237Z,98717.25
2023-04-30T15:53:11.687Z,98712.06
2023-04-30T15:55:38.476Z,98712.19
2023-04-30T15:58:05.773Z,98717.53
2023-04-30T16:00:33.647Z,98706.53
2023-04-30T16:03:00.616Z,98709.63
2023-04-30T16:05:27.329Z,98703.56
2023-04-30T16:07:54.476Z,98711.38
2023-04-30T16:10:21.302Z,98709.84
2023-04-30T16:12:48.603Z,98707.34
2023-04-30T16:15:15.313Z,98709.88
2023-04-30T16:17:41.828Z,98701.03
2023-04-30T16:20:09.046Z,98699.84
2023-04-30T16:22:36.173Z,98699.84
2023-04-30T16:25:03.068Z,98703.19
2023-04-30T16:27:29.569Z,98698.19
2023-04-30T16:29:56.392Z,98701.19
2023-04-30T16:32:23.292Z,98702.69
2023-04-30T16:34:49.764Z,98689.13
2023-04-30T16:37:16.297Z,98687.47
2023-04-30T16:39:42.810Z,98689.47
2023-04-30T16:42:09.535Z,98689.09
2023-04-30T16:44:36.812Z,98683.13
2023-04-30T16:47:03.260Z,98674.91
2023-04-30T16:49:29.733Z,98680.63
2023-04-30T16:51:56.257Z,98671.56
2023-04-30T16:54:22.795Z,98670.75
2023-04-30T16:56:49.288Z,98676.75
2023-04-30T16:59:15.807Z,98672.03
2023-04-30T17:01:42.379Z,98673.34
2023-04-30T17:04:09.018Z,98673.75
2023-04-30T17:06:36.499Z,98675.09
2023-04-30T17:09:03.130Z,98675.59
2023-04-30T17:11:30.814Z,98669.88
2023-04-30T17:13:57.670Z,98671.03
2023-04-30T17:16:24.219Z,98669.31
2023-04-30T17:18:50.744Z,98666.91
2023-04-30T17:21:17.198Z,98672.28
2023-04-30T17:23:43.770Z,98673.50
2023-04-30T17:26:10.195Z,98671.19
2023-04-30T17:28:37.280Z,98668.38
2023-04-30T17:31:07.019Z,98663.03
2023-04-30T17:33:34.103Z,98671.34
2023-04-30T17:36:00.736Z,98671.34
2023-04-30T17:38:28.130Z,98671.50
2023-04-30T17:40:54.718Z,98668.13
2023-04-30T17:43:21.226Z,98671.31
2023-04-30T17:45:47.837Z,98670.28
2023-04-30T17:48:14.353Z,98665.13
2023-04-30T17:50:41.174Z,98662.47
2023-04-30T17:53:07.803Z,98667.94
2023-04-30T17:55:34.331Z,98669.72
2023-04-30T17:58:00.880Z,98665.50
2023-04-30T18:00:27.345Z,98665.25
2023-04-30T18:02:53.885Z,98663.47
2023-04-30T18:05:20.534Z,98658.72
2023-04-30T18:07:47.554Z,98658.44
2023-04-30T18:10:14.138Z,98661.84
2023-04-30T18:12:41.345Z,98658.88
2023-04-30T18:15:13.036Z,98662.84
2023-04-30T18:17:40.368Z,98656.28
2023-04-30T18:20:08.104Z,98656.50
2023-04-30T18:22:34.726Z,98660.34
2023-04-30T18:25:01.222Z,98665.41
2023-04-30T18:27:27.682Z,98663.22
2023-04-30T18:29:56.412Z,98665.25
2023-04-30T18:32:23.193Z,98668.09
2023-04-30T18:34:49.707Z,98670.22
2023-04-30T18:37:17.674Z,98665.03
2023-04-30T18:39:44.147Z,98663.13
2023-04-30T18:42:10.833Z,98667.03
2023-04-30T18:44:37.827Z,98659.41
2023-04-30T18:47:06.289Z,98656.34
2023-04-30T18:49:32.776Z,98662.63
2023-04-30T18:52:01.014Z,98668.31
2023-04-30T18:54:27.989Z,98671.88
2023-04-30T18:56:54.505Z,98665.09
2023-04-30T18:59:21.898Z,98668.31
2023-04-30T19:01:51.731Z,98664.69
2023-04-30T19:04:18.255Z,98659.41
2023-04-30T19:06:45.936Z,98666.66
2023-04-30T19:09:14.919Z,98673.81
2023-04-30T19:11:42.023Z,98669.88
2023-04-30T19:14:08.509Z,98665.22
2023-04-30T19:16:35.031Z,98670.91
2023-04-30T19:19:01.524Z,98668.44
2023-04-30T19:21:29.847Z,98670.97
2023-04-30T19:23:57.392Z,98675.25
2023-04-30T19:26:27.696Z,98668.66
2023-04-30T19:28:54.282Z,98673.97
2023-04-30T19:31:22.383Z,98670.94
2023-04-30T19:33:48.956Z,98680.34
2023-04-30T19:36:15.562Z,98677.94
2023-04-30T19:38:42.244Z,98683.13
2023-04-30T19:41:08.727Z,98674.44
2023-04-30T19:43:35.182Z,98683.34
2023-04-30T19:46:02.343Z,98691.19
2023-04-30T19:48:31.030Z,98690.22
2023-04-30T19:50:58.037Z,98683.56
2023-04-30T19:53:27.407Z,98683.44
2023-04-30T19:55:53.948Z,98685.47
2023-04-30T19:58:20.634Z,98689.03
2023-04-30T20:00:47.322Z,98684.69
2023-04-30T20:03:16.655Z,98688.28
2023-04-30T20:05:45.082Z,98692.81
2023-04-30T20:08:11.713Z,98684.22
2023-04-30T20:10:38.782Z,98690.34
2023-04-30T20:13:07.106Z,98694.09
2023-04-30T20:15:33.900Z,98694.88
2023-04-30T20:18:01.403Z,98693.81
2023-04-30T20:20:29.384Z,98696.38
2023-04-30T20:22:56.883Z,98698.81
2023-04-30T20:25:29.366Z,98698.94
2023-04-30T20:27:56.405Z,98698.88
2023-04-30T20:30:22.869Z,98696.72
2023-04-30T20:32:49.388Z,98695.81
2023-04-30T20:35:16.761Z,98699.50
2023-04-30T20:37:43.219Z,98694.63
2023-04-30T20:40:10.254Z,98699.16
2023-04-30T20:42:36.782Z,98693.25
2023-04-30T20:45:05.842Z,98690.19
2023-04-30T20:47:32.492Z,98702.09
2023-04-30T20:49:59.024Z,98695.66
2023-04-30T20:52:26.060Z,98701.38
2023-04-30T20:54:52.654Z,98699.16
2023-04-30T20:57:19.167Z,98699.28
2023-04-30T20:59:45.754Z,98703.69
2023-04-30T21:02:12.307Z,98693.03
2023-04-30T21:04:38.823Z,98691.69
2023-04-30T21:07:05.630Z,98694.19
2023-04-30T21:09:34.547Z,98695.69
2023-04-30T21:12:05.238Z,98697.50
2023-04-30T21:14:32.711Z,98691.31
2023-04-30T21:16:59.659Z,98701.25
2023-04-30T21:19:29.152Z,98686.72
2023-04-30T21:21:55.634Z,98701.38
2023-04-30T21:24:22.120Z,98691.69
2023-04-30T21:26:48.572Z,98690.19
2023-04-30T21:29:15.243Z,98687.69
2023-04-30T21:31:41.831Z,98693.03
2023-04-30T21:34:08.408Z,98690.91
2023-04-30T21:36:35.448Z,98688.47
2023-04-30T21:39:02.043Z,98697.22
2023-04-30T21:41:29.908Z,98689.94
2023-04-30T21:43:56.674Z,98699.81
2023-04-30T21:46:23.211Z,98685.66
2023-04-30T21:48:50.060Z,98690.28
2023-04-30T21:51:25.716Z,98683.53
2023-04-30T21:53:52.157Z,98687.13
2023-04-30T21:56:20.329Z,98687.03
2023-04-30T21:58:48.220Z,98685.16
2023-04-30T22:01:14.705Z,98686.28
2023-04-30T22:03:44.507Z,98680.72
2023-04-30T22:06:11.197Z,98680.38
2023-04-30T22:08:37.775Z,98677.28
2023-04-30T22:11:04.740Z,98675.69
2023-04-30T22:13:31.248Z,98675.28
2023-04-30T22:15:58.022Z,98671.91
2023-04-30T22:18:24.991Z,98670.34
2023-04-30T22:20:52.338Z,98676.28
2023-04-30T22:23:22.086Z,98669.00
2023-04-30T22:25:48.831Z,98670.19
2023-04-30T22:28:19.242Z,98665.13
2023-04-30T22:30:46.080Z,98662.09
2023-04-30T22:33:13.024Z,98660.00
2023-04-30T22:35:39.734Z,98665.16
2023-04-30T22:38:07.249Z,98662.50
2023-04-30T22:40:37.762Z,98659.34
2023-04-30T22:43:05.141Z,98655.69
2023-04-30T22:45:32.735Z,98663.88
2023-04-30T22:48:01.570Z,98661.59
2023-04-30T22:50:31.581Z,98656.75
2023-04-30T22:52:59.164Z,98655.38
2023-04-30T22:55:26.974Z,98651.78
2023-04-30T22:57:53.842Z,98648.97
2023-04-30T23:00:21.069Z,98652.31
2023-04-30T23:02:47.898Z,98644.56
2023-04-30T23:05:14.503Z,98648.38
2023-04-30T23:07:41.052Z,98653.75
2023-04-30T23:10:16.592Z,98647.75
2023-04-30T23:12:43.540Z,98645.56
2023-04-30T23:15:15.479Z,98650.72
2023-04-30T23:17:51.616Z,98648.16
2023-04-30T23:20:21.650Z,98644.59
2023-04-30T23:22:48.131Z,98646.72
2023-04-30T23:25:14.707Z,98646.28
2023-04-30T23:27:43.926Z,98641.34
2023-04-30T23:30:13.635Z,98643.34
2023-04-30T23:32:40.303Z,98636.06
2023-04-30T23:35:08.921Z,98638.50
2023-04-30T23:37:35.944Z,98637.16
2023-04-30T23:40:13.873Z,98637.88
2023-04-30T23:42:40.755Z,98624.84
2023-04-30T23:45:08.503Z,98636.72
2023-04-30T23:47:36.546Z,98629.25
2023-04-30T23:50:14.386Z,98626.06
2023-04-30T23:52:40.886Z,98625.22
2023-04-30T23:55:08.268Z,98615.31
2023-04-30T23:57:37.478Z,98618.66
